Time;durP1;ratioP1;P1;durP2;ratioP2;P2;SDS_P1;SDS_P2;PMS_P1;PMS_P2;Temp;Humidity;BMP_temperature;BMP_pressure;BME280_temperature;BME280_humidity;BME280_pressure;Samples;Min_cycle;Max_cycle;Signal;HPM_P1;HPM_P2
2023/06/07 00:00:20;;;;;;;9.50;6.13;;;22.10;57.90;;;;;;5018904;28;20542;-68
2023/06/07 00:02:46;;;;;;;6.50;5.50;;;22.00;57.90;;;;;;5018380;28;20193;-68
2023/06/07 00:05:14;;;;;;;6.40;5.80;;;22.00;58.00;;;;;;5019863;28;20219;-68
2023/06/07 00:07:41;;;;;;;6.40;5.80;;;22.00;58.10;;;;;;5015224;28;20872;-69
2023/06/07 00:10:08;;;;;;;6.80;5.20;;;22.00;58.20;;;;;;5013137;28;20570;-70
2023/06/07 00:12:33;;;;;;;7.60;5.27;;;22.00;58.30;;;;;;5015768;28;20459;-70
2023/06/07 00:15:00;;;;;;;5.93;5.33;;;22.00;58.40;;;;;;5019230;28;20950;-70
2023/06/07 00:17:27;;;;;;;5.83;5.33;;;21.90;58.50;;;;;;5011330;28;20209;-69
2023/06/07 00:19:53;;;;;;;6.13;5.53;;;21.90;58.60;;;;;;5013416;28;21166;-69
2023/06/07 00:22:19;;;;;;;6.17;5.10;;;21.80;58.70;;;;;;5013612;28;20424;-69
2023/06/07 00:24:45;;;;;;;8.77;5.50;;;21.80;58.90;;;;;;5008809;28;20932;-69
2023/06/07 00:27:10;;;;;;;8.17;6.17;;;21.80;59.10;;;;;;5011232;28;20216;-70
2023/06/07 00:29:36;;;;;;;6.10;5.00;;;21.70;59.80;;;;;;5011965;28;20216;-70
2023/06/07 00:32:02;;;;;;;5.40;4.90;;;21.70;59.50;;;;;;5012612;28;20189;-70
2023/06/07 00:34:28;;;;;;;6.10;5.50;;;21.70;59.70;;;;;;5016694;28;20179;-70
2023/06/07 00:36:54;;;;;;;6.30;5.70;;;21.60;59.80;;;;;;5042460;28;20937;-69
2023/06/07 00:39:20;;;;;;;6.17;5.50;;;21.60;59.90;;;;;;5011762;28;20954;-68
2023/06/07 00:41:45;;;;;;;5.40;4.90;;;21.60;60.00;;;;;;5011481;28;20212;-69
2023/06/07 00:44:12;;;;;;;10.10;5.57;;;21.50;60.10;;;;;;5017293;28;20657;-69
2023/06/07 00:46:38;;;;;;;6.17;5.50;;;21.50;60.60;;;;;;5011958;28;20200;-69
2023/06/07 00:49:04;;;;;;;5.60;5.07;;;21.40;61.00;;;;;;5011818;28;20447;-68
2023/06/07 00:51:30;;;;;;;7.10;5.50;;;21.40;61.30;;;;;;5016348;28;20463;-68
2023/06/07 00:54:00;;;;;;;6.47;5.87;;;21.40;61.50;;;;;;5017827;28;21330;-68
2023/06/07 00:56:29;;;;;;;6.70;6.10;;;21.40;61.70;;;;;;5010518;28;20455;-68
2023/06/07 00:58:56;;;;;;;5.60;5.10;;;21.30;61.70;;;;;;5017600;28;20469;-68
2023/06/07 01:01:21;;;;;;;6.13;5.20;;;21.30;62.00;;;;;;5006839;28;20926;-68
2023/06/07 01:03:47;;;;;;;6.37;5.70;;;21.30;62.20;;;;;;5011429;28;20442;-68
2023/06/07 01:06:13;;;;;;;7.50;5.70;;;21.30;62.40;;;;;;5013838;28;20213;-69
2023/06/07 01:08:40;;;;;;;5.77;5.20;;;21.30;62.90;;;;;;5020882;28;20205;-68
2023/06/07 01:11:06;;;;;;;6.60;5.80;;;21.30;63.00;;;;;;5014489;28;20487;-69
2023/06/07 01:13:32;;;;;;;8.93;5.50;;;21.30;63.10;;;;;;5022617;28;20467;-68
2023/06/07 01:15:58;;;;;;;5.73;5.23;;;21.30;63.20;;;;;;5018621;28;20439;-68
2023/06/07 01:18:25;;;;;;;6.57;5.70;;;21.20;63.40;;;;;;5016398;28;20459;-68
2023/06/07 01:20:55;;;;;;;6.53;5.27;;;21.20;63.60;;;;;;5020852;28;20431;-68
2023/06/07 01:23:32;;;;;;;6.20;5.60;;;21.20;63.90;;;;;;5017833;28;20439;-68
2023/06/07 01:25:59;;;;;;;6.13;5.53;;;21.20;64.00;;;;;;5017121;28;20546;-69
2023/06/07 01:28:26;;;;;;;6.53;5.50;;;21.10;64.30;;;;;;5021556;28;20459;-69
2023/06/07 01:30:53;;;;;;;6.73;6.03;;;21.10;64.40;;;;;;5012226;28;20442;-69
2023/06/07 01:33:20;;;;;;;5.93;5.40;;;21.10;64.60;;;;;;5015956;28;21304;-69
2023/06/07 01:35:47;;;;;;;5.63;5.13;;;21.10;64.80;;;;;;5012066;28;20458;-68
2023/06/07 01:38:15;;;;;;;6.10;5.50;;;21.00;65.00;;;;;;5016703;28;20540;-68
2023/06/07 01:40:43;;;;;;;6.53;5.43;;;21.00;65.20;;;;;;5011558;28;20423;-69
2023/06/07 01:43:09;;;;;;;6.23;5.63;;;21.00;65.50;;;;;;5016976;28;20524;-69
2023/06/07 01:45:37;;;;;;;6.30;5.73;;;20.90;65.80;;;;;;5013730;28;20468;-69
2023/06/07 01:48:03;;;;;;;6.60;5.93;;;20.90;66.00;;;;;;5014062;28;20435;-69
2023/06/07 01:50:29;;;;;;;6.27;5.60;;;20.90;66.30;;;;;;5013121;28;20436;-69
2023/06/07 01:52:54;;;;;;;5.17;4.73;;;20.90;66.60;;;;;;5016697;28;20492;-69
2023/06/07 01:55:21;;;;;;;7.10;5.83;;;20.70;66.70;;;;;;5013864;28;20185;-69
2023/06/07 01:57:56;;;;;;;6.27;5.67;;;20.70;67.30;;;;;;5011602;28;20196;-68
2023/06/07 02:00:25;;;;;;;6.43;5.90;;;20.70;67.60;;;;;;5012574;28;21091;-68
2023/06/07 02:02:57;;;;;;;6.43;5.80;;;20.70;67.90;;;;;;5014460;28;20466;-68
2023/06/07 02:05:31;;;;;;;6.50;5.87;;;20.60;68.50;;;;;;5007827;28;20470;-68
2023/06/07 02:07:59;;;;;;;6.77;6.07;;;20.60;68.90;;;;;;5011216;28;20702;-68
2023/06/07 02:10:29;;;;;;;6.00;5.47;;;20.50;69.00;;;;;;5011988;28;20972;-68
2023/06/07 02:12:56;;;;;;;8.20;6.60;;;20.50;69.80;;;;;;5015206;28;20563;-68
2023/06/07 02:15:22;;;;;;;8.30;6.30;;;20.50;70.20;;;;;;5013282;28;20454;-68
2023/06/07 02:18:00;;;;;;;9.40;6.43;;;20.40;70.40;;;;;;5012772;28;20431;-68
2023/06/07 02:20:28;;;;;;;6.40;5.80;;;20.40;70.60;;;;;;5012968;28;20208;-68
2023/06/07 02:22:55;;;;;;;7.17;5.90;;;20.40;70.90;;;;;;5012515;28;20439;-68
2023/06/07 02:25:21;;;;;;;6.30;5.70;;;20.30;71.30;;;;;;5016566;28;20984;-68
2023/06/07 02:27:47;;;;;;;7.07;5.60;;;20.30;71.60;;;;;;5018077;28;20434;-68
2023/06/07 02:30:13;;;;;;;7.07;5.83;;;20.20;72.00;;;;;;5011100;28;20458;-68
2023/06/07 02:32:38;;;;;;;6.27;5.67;;;20.20;72.30;;;;;;5023511;28;20184;-68
2023/06/07 02:35:07;;;;;;;6.70;6.10;;;20.20;72.60;;;;;;5018136;28;20188;-68
2023/06/07 02:37:32;;;;;;;10.13;6.10;;;20.10;72.80;;;;;;5016390;28;20184;-68
2023/06/07 02:39:58;;;;;;;6.83;5.67;;;20.10;73.10;;;;;;5010167;28;20459;-69
2023/06/07 02:42:23;;;;;;;6.40;5.80;;;20.00;73.30;;;;;;5016089;28;20804;-69
2023/06/07 02:44:49;;;;;;;6.60;5.60;;;20.00;74.00;;;;;;5010202;28;21700;-69
2023/06/07 02:47:14;;;;;;;6.23;5.70;;;20.00;74.30;;;;;;5010805;28;20630;-69
2023/06/07 02:49:41;;;;;;;6.70;6.00;;;20.00;75.40;;;;;;5008759;28;20891;-69
2023/06/07 02:52:07;;;;;;;5.83;5.23;;;19.90;75.00;;;;;;5012408;28;20181;-69
2023/06/07 02:54:34;;;;;;;6.40;5.90;;;19.90;75.00;;;;;;5013977;28;20431;-69
2023/06/07 02:57:00;;;;;;;6.50;5.57;;;19.90;75.40;;;;;;5007159;28;20804;-69
2023/06/07 02:59:26;;;;;;;6.40;5.80;;;19.90;75.80;;;;;;5008744;28;20451;-69
2023/06/07 03:01:52;;;;;;;6.20;5.70;;;19.80;75.90;;;;;;5008298;28;20435;-69
2023/06/07 03:04:19;;;;;;;6.13;5.47;;;19.80;76.10;;;;;;5011455;28;20446;-68
2023/06/07 03:06:46;;;;;;;11.10;6.00;;;19.80;76.60;;;;;;5011697;28;20553;-68
2023/06/07 03:09:14;;;;;;;6.73;5.67;;;19.80;76.70;;;;;;5016523;28;20887;-69
2023/06/07 03:11:40;;;;;;;6.70;6.00;;;19.80;77.10;;;;;;5010701;28;20436;-69
2023/06/07 03:14:05;;;;;;;6.10;5.53;;;19.70;77.20;;;;;;5013808;28;20454;-68
2023/06/07 03:16:32;;;;;;;6.87;6.20;;;19.70;77.60;;;;;;5016745;28;20247;-68
2023/06/07 03:18:57;;;;;;;7.13;5.60;;;19.70;77.80;;;;;;5017305;28;20227;-69
2023/06/07 03:21:23;;;;;;;7.33;6.10;;;19.60;77.90;;;;;;5041023;28;20435;-69
2023/06/07 03:23:49;;;;;;;6.73;5.77;;;19.60;78.40;;;;;;5002937;28;20181;-69
2023/06/07 03:26:16;;;;;;;6.63;5.60;;;19.60;78.70;;;;;;5008211;28;20617;-69
2023/06/07 03:28:42;;;;;;;5.97;5.37;;;19.60;79.10;;;;;;5012298;28;20979;-69
2023/06/07 03:31:08;;;;;;;6.47;5.87;;;19.60;79.20;;;;;;5011481;28;20443;-69
2023/06/07 03:33:33;;;;;;;7.23;6.53;;;19.50;79.30;;;;;;5019756;28;20518;-69
2023/06/07 03:35:59;;;;;;;5.77;5.27;;;19.50;79.90;;;;;;5012925;28;20182;-69
2023/06/07 03:38:24;;;;;;;7.33;6.57;;;19.50;79.90;;;;;;5018967;22;20208;-69
2023/06/07 03:40:50;;;;;;;7.03;5.80;;;19.50;80.20;;;;;;5006825;28;20591;-69
2023/06/07 03:43:15;;;;;;;7.07;6.00;;;19.50;80.20;;;;;;5016535;28;20537;-69
2023/06/07 03:45:41;;;;;;;6.33;5.73;;;19.60;80.40;;;;;;5017774;28;20247;-68
2023/06/07 03:48:06;;;;;;;6.63;6.00;;;19.50;80.30;;;;;;5012119;28;20267;-68
2023/06/07 03:50:32;;;;;;;7.50;6.33;;;19.50;80.40;;;;;;5013431;28;20177;-68
2023/06/07 03:52:58;;;;;;;7.60;6.40;;;19.50;80.60;;;;;;5013721;28;20280;-68
2023/06/07 03:55:23;;;;;;;6.47;5.80;;;19.50;80.80;;;;;;5016079;28;20298;-68
2023/06/07 03:57:49;;;;;;;6.70;6.10;;;19.50;80.90;;;;;;5010025;28;20564;-68
2023/06/07 04:00:17;;;;;;;7.40;6.10;;;19.40;80.90;;;;;;5014703;28;20470;-68
2023/06/07 04:02:43;;;;;;;7.97;6.90;;;19.40;81.10;;;;;;5015468;28;20502;-69
2023/06/07 04:05:09;;;;;;;6.90;6.30;;;19.40;81.30;;;;;;5012035;28;20612;-70
2023/06/07 04:07:34;;;;;;;12.30;8.10;;;19.30;81.40;;;;;;5017767;28;20650;-69
2023/06/07 04:10:00;;;;;;;6.20;5.60;;;19.30;81.90;;;;;;5015988;28;20199;-69
2023/06/07 04:12:25;;;;;;;7.20;6.50;;;19.30;82.60;;;;;;5016861;28;20181;-69
2023/06/07 04:14:51;;;;;;;6.23;5.73;;;19.30;82.80;;;;;;5015533;28;20546;-69
2023/06/07 04:17:16;;;;;;;6.60;6.00;;;19.30;83.20;;;;;;5018162;28;20259;-69
2023/06/07 04:19:42;;;;;;;6.20;5.43;;;19.30;83.30;;;;;;5016661;28;20209;-68
2023/06/07 04:22:08;;;;;;;7.50;6.00;;;19.20;83.80;;;;;;5010700;28;20185;-68
2023/06/07 04:24:33;;;;;;;6.20;5.60;;;19.20;84.60;;;;;;5020255;28;20211;-68
2023/06/07 04:27:01;;;;;;;6.30;5.70;;;19.10;84.60;;;;;;5017981;28;20266;-68
2023/06/07 04:29:26;;;;;;;6.73;6.13;;;19.10;85.10;;;;;;5020156;28;20789;-68
2023/06/07 04:31:56;;;;;;;14.20;6.30;;;19.10;85.50;;;;;;5018781;28;20510;-68
2023/06/07 04:34:23;;;;;;;6.50;5.90;;;19.10;85.90;;;;;;5014702;28;20180;-69
2023/06/07 04:36:50;;;;;;;6.60;6.03;;;19.10;85.90;;;;;;5016469;28;20454;-69
2023/06/07 04:39:16;;;;;;;6.70;6.10;;;19.10;86.50;;;;;;5015754;28;20972;-68
2023/06/07 04:41:42;;;;;;;6.47;5.87;;;19.10;86.60;;;;;;5013830;28;20428;-68
2023/06/07 04:44:08;;;;;;;6.70;6.00;;;19.10;86.90;;;;;;5013753;28;20434;-68
2023/06/07 04:46:34;;;;;;;6.83;6.00;;;19.10;87.10;;;;;;5017300;28;20649;-68
2023/06/07 04:49:00;;;;;;;6.40;5.80;;;19.10;87.40;;;;;;5018796;28;20525;-68
2023/06/07 04:51:26;;;;;;;8.10;5.60;;;19.10;87.70;;;;;;5010374;28;20428;-68
2023/06/07 04:53:58;;;;;;;6.90;6.30;;;19.00;88.00;;;;;;5013774;28;20230;-69
2023/06/07 04:56:25;;;;;;;8.23;6.80;;;19.00;88.40;;;;;;5016276;28;20268;-68
2023/06/07 04:58:52;;;;;;;6.73;6.13;;;19.00;88.90;;;;;;5017067;28;20498;-68
2023/06/07 05:01:18;;;;;;;7.17;6.47;;;19.00;89.20;;;;;;5014351;28;20435;-68
2023/06/07 05:03:44;;;;;;;7.63;5.80;;;19.00;89.20;;;;;;5013676;28;20440;-68
2023/06/07 05:06:10;;;;;;;7.80;6.77;;;19.10;89.30;;;;;;5015076;28;20713;-69
2023/06/07 05:08:36;;;;;;;6.73;5.63;;;19.10;89.60;;;;;;5015970;28;20462;-68
2023/06/07 05:11:02;;;;;;;7.90;6.10;;;19.10;89.80;;;;;;5012138;28;20432;-68
2023/06/07 05:13:28;;;;;;;6.47;5.50;;;19.10;90.40;;;;;;5019231;28;20465;-68
2023/06/07 05:15:54;;;;;;;9.53;6.60;;;19.10;90.00;;;;;;5014722;28;20186;-68
2023/06/07 05:18:20;;;;;;;7.00;6.30;;;19.20;90.20;;;;;;5015111;28;20207;-68
2023/06/07 05:20:48;;;;;;;7.20;6.50;;;19.20;90.20;;;;;;5013133;28;20949;-68
2023/06/07 05:23:16;;;;;;;6.23;5.73;;;19.20;90.30;;;;;;5014694;28;21010;-68
2023/06/07 05:25:44;;;;;;;7.07;6.17;;;19.20;90.40;;;;;;5016895;28;20506;-69
2023/06/07 05:28:10;;;;;;;8.00;7.20;;;19.20;90.40;;;;;;5032377;28;20922;-69
2023/06/07 05:30:36;;;;;;;7.73;7.03;;;19.20;90.50;;;;;;5015352;28;20423;-69
2023/06/07 05:33:02;;;;;;;7.60;6.80;;;19.30;90.60;;;;;;5010277;28;20419;-69
2023/06/07 05:35:27;;;;;;;9.13;6.03;;;19.30;90.60;;;;;;5021376;28;20458;-69
2023/06/07 05:37:53;;;;;;;7.60;6.83;;;19.40;90.70;;;;;;5020012;28;20192;-69
2023/06/07 05:40:18;;;;;;;7.47;6.77;;;19.40;90.60;;;;;;5016119;28;20658;-69
2023/06/07 05:42:45;;;;;;;7.87;7.07;;;19.40;90.50;;;;;;5017759;28;20312;-69
2023/06/07 05:45:11;;;;;;;5.93;5.43;;;19.50;90.80;;;;;;5017590;28;20190;-69
2023/06/07 05:47:37;;;;;;;7.00;6.37;;;19.50;90.70;;;;;;5017933;28;20511;-68
2023/06/07 05:50:04;;;;;;;11.00;6.67;;;19.50;90.60;;;;;;5014385;28;20511;-68
2023/06/07 05:52:30;;;;;;;7.13;6.47;;;19.60;90.70;;;;;;5011512;28;20196;-69
2023/06/07 05:54:57;;;;;;;7.20;6.20;;;19.60;90.60;;;;;;5017777;28;20922;-69
2023/06/07 05:57:23;;;;;;;8.50;7.67;;;19.70;90.50;;;;;;5016275;28;20693;-69
2023/06/07 05:59:49;;;;;;;7.20;6.50;;;19.70;90.50;;;;;;5012594;28;20534;-69
2023/06/07 06:02:20;;;;;;;7.03;6.43;;;19.80;90.50;;;;;;5016463;28;20185;-69
2023/06/07 06:04:45;;;;;;;10.43;6.40;;;19.80;90.40;;;;;;5014732;28;20462;-69
2023/06/07 06:07:11;;;;;;;7.83;7.00;;;19.90;90.50;;;;;;5009002;28;20476;-68
2023/06/07 06:09:37;;;;;;;7.03;6.43;;;19.90;90.50;;;;;;5014752;28;20521;-68
2023/06/07 06:12:02;;;;;;;6.77;6.07;;;19.90;90.40;;;;;;5016664;28;20574;-68
2023/06/07 06:14:28;;;;;;;7.33;6.50;;;20.00;90.40;;;;;;5016315;28;20299;-68
2023/06/07 06:16:54;;;;;;;10.30;9.20;;;20.00;90.30;;;;;;5010765;28;20231;-68
2023/06/07 06:19:20;;;;;;;6.80;6.10;;;20.00;90.30;;;;;;5011296;28;20212;-69
2023/06/07 06:21:45;;;;;;;7.13;6.50;;;20.10;90.30;;;;;;5010157;28;20181;-69
2023/06/07 06:24:11;;;;;;;7.03;5.90;;;20.10;90.20;;;;;;5009442;28;20444;-69
2023/06/07 06:26:37;;;;;;;7.77;6.97;;;20.20;90.20;;;;;;5011290;28;20225;-69
2023/06/07 06:29:03;;;;;;;13.03;6.20;;;20.20;90.20;;;;;;5011042;28;20465;-69
2023/06/07 06:31:29;;;;;;;9.57;7.57;;;20.30;90.10;;;;;;5011864;28;20189;-69
2023/06/07 06:33:54;;;;;;;9.50;8.60;;;20.30;90.00;;;;;;5007485;28;20275;-69
2023/06/07 06:36:20;;;;;;;12.27;6.63;;;20.40;90.00;;;;;;5016064;28;20216;-69
2023/06/07 06:38:46;;;;;;;10.43;8.00;;;20.40;90.10;;;;;;5014979;28;20258;-69
2023/06/07 06:41:13;;;;;;;6.90;6.30;;;20.50;90.10;;;;;;5002884;28;20203;-69
2023/06/07 06:43:38;;;;;;;8.00;6.20;;;20.50;90.80;;;;;;5007771;28;20953;-70
2023/06/07 06:46:04;;;;;;;7.87;6.60;;;20.50;90.30;;;;;;5021463;28;20570;-69
2023/06/07 06:48:30;;;;;;;8.60;7.70;;;20.50;90.40;;;;;;5012607;28;20201;-69
2023/06/07 06:50:55;;;;;;;8.50;7.67;;;20.60;90.70;;;;;;5015663;28;20237;-69
2023/06/07 06:53:21;;;;;;;7.30;6.33;;;20.60;90.60;;;;;;5009429;28;20348;-70
2023/06/07 06:55:48;;;;;;;11.17;7.00;;;20.60;91.00;;;;;;5016491;28;20180;-71
2023/06/07 06:58:13;;;;;;;6.23;5.63;;;20.70;90.90;;;;;;5014831;28;20240;-71
2023/06/07 07:00:40;;;;;;;11.83;5.67;;;20.70;91.30;;;;;;5018310;28;20431;-71
2023/06/07 07:03:05;;;;;;;6.67;6.00;;;20.70;91.10;;;;;;5010811;28;20184;-71
2023/06/07 07:05:31;;;;;;;9.73;8.73;;;20.80;91.30;;;;;;5016396;28;20461;-71
2023/06/07 07:07:58;;;;;;;7.00;6.33;;;20.80;91.20;;;;;;5008510;28;20176;-70
2023/06/07 07:10:23;;;;;;;6.80;6.10;;;20.90;91.10;;;;;;5011983;28;20415;-71
2023/06/07 07:12:49;;;;;;;8.70;6.20;;;20.90;91.00;;;;;;5010415;28;20435;-70
2023/06/07 07:15:15;;;;;;;9.93;5.80;;;20.90;91.30;;;;;;5016650;28;20895;-70
2023/06/07 07:17:48;;;;;;;6.23;5.57;;;21.00;91.20;;;;;;5014908;28;20200;-71
2023/06/07 07:20:16;;;;;;;6.80;6.20;;;21.00;91.00;;;;;;5017799;28;20573;-70
2023/06/07 07:22:44;;;;;;;6.73;6.13;;;21.10;90.90;;;;;;5009127;28;21251;-70
2023/06/07 07:25:10;;;;;;;7.90;7.10;;;21.10;90.80;;;;;;5015422;28;20914;-71
2023/06/07 07:27:36;;;;;;;6.90;6.20;;;21.10;90.80;;;;;;5010327;28;20529;-69
2023/06/07 07:30:02;;;;;;;7.30;5.57;;;21.10;90.90;;;;;;5010158;28;20601;-70
2023/06/07 07:32:28;;;;;;;6.23;5.63;;;21.10;91.20;;;;;;5011772;28;20570;-69
2023/06/07 07:34:53;;;;;;;6.17;5.57;;;21.20;91.40;;;;;;5011365;28;20426;-69
2023/06/07 07:37:19;;;;;;;6.50;5.90;;;21.30;90.90;;;;;;5011067;28;20189;-69
2023/06/07 07:39:45;;;;;;;7.00;6.07;;;21.30;90.90;;;;;;5014752;28;20308;-69
2023/06/07 07:42:11;;;;;;;6.03;5.43;;;21.30;90.70;;;;;;5015243;28;20454;-69
2023/06/07 07:44:37;;;;;;;6.53;5.90;;;21.40;90.80;;;;;;5014157;28;20173;-70
2023/06/07 07:47:02;;;;;;;6.70;5.47;;;21.40;90.70;;;;;;5015947;28;20213;-70
2023/06/07 07:49:28;;;;;;;5.80;5.30;;;21.40;90.80;;;;;;5021171;28;20533;-70
2023/06/07 07:51:53;;;;;;;6.67;4.60;;;21.50;90.70;;;;;;5023056;28;20279;-70
2023/06/07 07:54:19;;;;;;;6.30;5.30;;;21.50;90.60;;;;;;5015310;28;20194;-68
2023/06/07 07:56:45;;;;;;;5.67;5.17;;;21.60;90.50;;;;;;5019061;28;20203;-68
2023/06/07 07:59:12;;;;;;;5.50;5.00;;;21.60;90.40;;;;;;5017257;28;20266;-69
2023/06/07 08:01:37;;;;;;;5.57;5.07;;;21.70;90.20;;;;;;5020962;28;20195;-68
2023/06/07 08:04:03;;;;;;;6.10;5.50;;;21.80;90.00;;;;;;5013876;28;20443;-68
2023/06/07 08:06:29;;;;;;;5.10;4.70;;;21.70;90.20;;;;;;5017975;28;20299;-68
2023/06/07 08:08:56;;;;;;;5.00;4.50;;;21.80;89.50;;;;;;5012453;28;20200;-69
2023/06/07 08:11:21;;;;;;;8.10;4.33;;;21.90;88.80;;;;;;5014821;28;20447;-69
2023/06/07 08:13:47;;;;;;;8.10;7.37;;;22.00;88.60;;;;;;5020118;28;20487;-69
2023/06/07 08:16:12;;;;;;;11.13;5.90;;;22.00;88.30;;;;;;5015742;28;20688;-68
2023/06/07 08:18:38;;;;;;;5.43;4.97;;;22.10;87.80;;;;;;5014728;28;20212;-68
2023/06/07 08:21:04;;;;;;;5.37;4.97;;;22.20;86.60;;;;;;5013449;28;20227;-69
2023/06/07 08:23:30;;;;;;;5.13;4.50;;;22.20;86.20;;;;;;5014971;28;20195;-68
2023/06/07 08:25:57;;;;;;;5.37;4.83;;;22.30;86.20;;;;;;5016164;28;20827;-68
2023/06/07 08:28:24;;;;;;;5.00;4.50;;;22.40;86.10;;;;;;5017408;28;20837;-68
2023/06/07 08:30:49;;;;;;;8.00;5.03;;;22.40;85.50;;;;;;5019752;28;20427;-69
2023/06/07 08:33:15;;;;;;;5.33;4.83;;;22.40;85.20;;;;;;5018316;28;20533;-70
2023/06/07 08:35:41;;;;;;;4.70;3.77;;;22.50;84.70;;;;;;5015557;28;21194;-70
2023/06/07 08:38:07;;;;;;;4.10;3.80;;;22.60;83.80;;;;;;5010642;28;20771;-70
2023/06/07 08:40:34;;;;;;;5.43;4.17;;;22.60;83.10;;;;;;5011848;28;20189;-70
2023/06/07 08:43:00;;;;;;;4.00;3.70;;;22.70;82.10;;;;;;5014861;28;20473;-67
2023/06/07 08:45:26;;;;;;;4.60;4.20;;;22.70;81.10;;;;;;5014726;28;20467;-67
2023/06/07 08:47:53;;;;;;;3.93;3.63;;;22.80;80.50;;;;;;5018068;28;20238;-66
2023/06/07 08:50:22;;;;;;;4.87;3.83;;;22.80;80.70;;;;;;5014194;28;20208;-67
2023/06/07 08:52:53;;;;;;;7.30;6.40;;;22.80;80.80;;;;;;5009382;28;20870;-68
2023/06/07 08:55:18;;;;;;;9.17;8.37;;;22.90;80.30;;;;;;5014544;28;20435;-68
2023/06/07 08:57:51;;;;;;;8.00;7.20;;;23.00;79.60;;;;;;5009842;28;20442;-67
2023/06/07 09:00:23;;;;;;;5.20;4.70;;;23.10;79.10;;;;;;5019389;28;20255;-68
2023/06/07 09:02:53;;;;;;;4.53;4.13;;;23.10;78.30;;;;;;5018936;28;20811;-67
2023/06/07 09:05:20;;;;;;;4.83;4.43;;;23.20;77.30;;;;;;5010491;28;20477;-67
2023/06/07 09:07:45;;;;;;;3.80;3.50;;;23.20;76.70;;;;;;5009547;28;20435;-67
2023/06/07 09:10:13;;;;;;;4.80;4.40;;;23.30;76.10;;;;;;5013557;28;20455;-67
2023/06/07 09:12:42;;;;;;;4.57;4.17;;;23.40;76.00;;;;;;5012361;28;20260;-67
2023/06/07 09:15:09;;;;;;;4.60;4.20;;;23.40;75.60;;;;;;5017100;28;20432;-67
2023/06/07 09:18:02;;;;;;;3.97;3.67;;;23.50;75.60;;;;;;5021233;28;20517;-67
2023/06/07 09:20:30;;;;;;;3.87;3.30;;;23.50;74.60;;;;;;5026519;28;20419;-67
2023/06/07 09:23:04;;;;;;;4.77;3.33;;;23.60;73.90;;;;;;5013362;28;20427;-69
2023/06/07 09:25:30;;;;;;;4.50;3.30;;;23.60;73.10;;;;;;5015801;28;20466;-68
2023/06/07 09:27:56;;;;;;;3.57;3.23;;;23.70;73.10;;;;;;5017215;28;20443;-69
2023/06/07 09:30:23;;;;;;;4.60;3.30;;;23.70;72.70;;;;;;5016591;28;20180;-69
2023/06/07 09:32:49;;;;;;;4.00;3.50;;;23.80;72.10;;;;;;5014945;28;20463;-68
2023/06/07 09:35:17;;;;;;;3.40;3.10;;;23.90;72.10;;;;;;5016037;28;20477;-68
2023/06/07 09:37:47;;;;;;;3.53;3.20;;;23.90;72.40;;;;;;5016773;28;20851;-69
2023/06/07 09:40:14;;;;;;;3.33;3.03;;;24.00;71.10;;;;;;5012468;28;20516;-70
2023/06/07 09:42:40;;;;;;;3.93;3.60;;;24.10;70.60;;;;;;5016294;28;20993;-69
2023/06/07 09:45:11;;;;;;;3.30;3.00;;;24.10;70.20;;;;;;5011462;28;20502;-69
2023/06/07 09:47:36;;;;;;;3.60;3.30;;;24.20;70.40;;;;;;5017177;28;20215;-67
2023/06/07 09:50:12;;;;;;;3.77;3.47;;;24.20;69.30;;;;;;5018426;28;20470;-67
2023/06/07 09:52:39;;;;;;;3.73;3.43;;;24.20;70.00;;;;;;5014897;28;20176;-67
2023/06/07 09:55:06;;;;;;;4.47;4.07;;;24.30;70.40;;;;;;5014642;28;20408;-67
2023/06/07 09:57:33;;;;;;;4.53;3.30;;;24.40;70.30;;;;;;5016085;28;20427;-68
2023/06/07 10:00:14;;;;;;;3.90;3.60;;;24.50;69.50;;;;;;5015798;28;20475;-68
2023/06/07 10:02:43;;;;;;;3.47;3.17;;;24.60;67.40;;;;;;5016242;28;20595;-68
2023/06/07 10:05:14;;;;;;;3.30;3.00;;;24.70;66.60;;;;;;5013768;28;20435;-69
2023/06/07 10:07:45;;;;;;;6.27;5.67;;;24.70;66.60;;;;;;5015206;28;20938;-69
2023/06/07 10:10:14;;;;;;;9.83;8.97;;;24.80;66.60;;;;;;5010256;28;20470;-68
2023/06/07 10:12:41;;;;;;;5.07;4.67;;;24.80;65.80;;;;;;5012569;28;20489;-67
2023/06/07 10:15:09;;;;;;;4.70;4.30;;;24.80;66.00;;;;;;5015216;28;20461;-67
2023/06/07 10:17:58;;;;;;;3.63;3.33;;;24.90;65.80;;;;;;5019173;28;20443;-66
2023/06/07 10:20:34;;;;;;;4.03;3.63;;;25.00;64.20;;;;;;5010316;28;20450;-67
2023/06/07 10:23:05;;;;;;;4.13;3.83;;;25.20;63.40;;;;;;5009796;28;20498;-66
2023/06/07 10:25:37;;;;;;;3.60;3.30;;;25.20;63.10;;;;;;5025769;28;20467;-67
2023/06/07 10:28:14;;;;;;;4.00;3.57;;;25.30;63.30;;;;;;5016377;28;20439;-67
2023/06/07 10:30:50;;;;;;;4.40;4.00;;;25.30;63.80;;;;;;5016365;28;20807;-67
2023/06/07 10:33:17;;;;;;;4.90;4.50;;;25.40;63.40;;;;;;5014090;28;20418;-68
2023/06/07 10:35:44;;;;;;;6.70;5.10;;;25.50;63.00;;;;;;5015047;28;20534;-68
2023/06/07 10:38:11;;;;;;;5.20;4.77;;;25.50;62.20;;;;;;5016073;28;20439;-69
2023/06/07 10:40:38;;;;;;;5.13;4.33;;;25.50;61.50;;;;;;5013099;28;20446;-69
2023/06/07 10:43:05;;;;;;;4.10;3.80;;;25.50;60.70;;;;;;5010326;28;20530;-68
2023/06/07 10:45:30;;;;;;;5.00;4.60;;;25.50;61.30;;;;;;5009344;28;20528;-68
2023/06/07 10:47:56;;;;;;;4.20;3.80;;;25.60;61.60;;;;;;5014205;28;20949;-69
2023/06/07 10:50:45;;;;;;;8.57;7.80;;;25.60;60.40;;;;;;5015990;28;20189;-68
2023/06/07 10:53:11;;;;;;;5.97;5.47;;;25.60;60.00;;;;;;5008569;28;20192;-68
2023/06/07 10:55:37;;;;;;;5.23;4.83;;;25.50;59.80;;;;;;5013313;28;20426;-69
2023/06/07 10:58:03;;;;;;;12.47;11.33;;;25.50;60.40;;;;;;5013605;28;20259;-69
2023/06/07 11:00:33;;;;;;;4.60;4.20;;;25.50;60.20;;;;;;5016936;28;20184;-69
2023/06/07 11:03:05;;;;;;;5.57;5.07;;;25.40;59.90;;;;;;5011624;28;20435;-69
2023/06/07 11:05:53;;;;;;;4.17;3.87;;;25.40;60.40;;;;;;5015106;28;20412;-69
2023/06/07 11:08:23;;;;;;;3.90;3.60;;;25.60;60.70;;;;;;5011719;28;20452;-69
2023/06/07 11:10:49;;;;;;;4.30;4.00;;;25.60;60.00;;;;;;5012409;28;20467;-68
2023/06/07 11:13:14;;;;;;;5.20;3.50;;;25.80;60.20;;;;;;5000214;28;20435;-69
2023/06/07 11:15:40;;;;;;;4.37;3.67;;;25.90;59.70;;;;;;5011563;28;20185;-67
2023/06/07 11:18:10;;;;;;;4.00;3.70;;;26.00;58.80;;;;;;5013452;28;20188;-67
2023/06/07 11:20:38;;;;;;;3.70;3.40;;;26.10;58.30;;;;;;5010424;28;20938;-68
2023/06/07 11:23:26;;;;;;;3.70;3.40;;;26.20;57.40;;;;;;5009038;28;20473;-68
2023/06/07 11:25:55;;;;;;;4.27;3.87;;;26.20;57.80;;;;;;5014833;28;20916;-68
2023/06/07 11:28:26;;;;;;;4.23;3.30;;;26.40;57.90;;;;;;5014629;28;20900;-68
2023/06/07 11:30:52;;;;;;;3.90;3.60;;;26.50;57.70;;;;;;5017266;28;20909;-68
2023/06/07 11:33:21;;;;;;;3.93;3.50;;;26.70;57.30;;;;;;5014048;28;20783;-69
2023/06/07 11:35:50;;;;;;;5.53;3.67;;;26.70;55.70;;;;;;5013844;28;20462;-69
2023/06/07 11:38:16;;;;;;;5.00;3.87;;;26.80;55.60;;;;;;5006795;28;20543;-67
2023/06/07 11:40:42;;;;;;;3.63;3.33;;;26.80;55.60;;;;;;5010993;28;20972;-67
2023/06/07 11:43:11;;;;;;;4.80;4.40;;;26.90;55.50;;;;;;5011252;28;21155;-67
2023/06/07 11:45:39;;;;;;;4.20;3.90;;;27.10;55.70;;;;;;5009835;28;20456;-68
2023/06/07 11:48:05;;;;;;;4.50;4.10;;;27.40;55.90;;;;;;5013016;28;20431;-68
2023/06/07 11:50:31;;;;;;;4.80;3.87;;;27.60;55.80;;;;;;5010448;28;20428;-68
2023/06/07 11:52:57;;;;;;;4.67;4.27;;;27.80;54.90;;;;;;5010967;28;20428;-69
2023/06/07 11:55:24;;;;;;;6.70;4.80;;;27.80;54.10;;;;;;5011008;28;20181;-69
2023/06/07 11:57:53;;;;;;;4.43;4.03;;;27.70;53.60;;;;;;5014117;28;20668;-68
2023/06/07 12:00:27;;;;;;;4.40;4.10;;;27.80;53.30;;;;;;5009212;28;20452;-69
2023/06/07 12:02:53;;;;;;;4.93;4.00;;;28.20;53.20;;;;;;5000188;28;20435;-70
2023/06/07 12:05:21;;;;;;;4.33;4.03;;;29.20;52.70;;;;;;5006758;28;20447;-70
2023/06/07 12:07:58;;;;;;;4.87;4.47;;;30.50;51.80;;;;;;5011989;28;20411;-70
2023/06/07 12:10:24;;;;;;;4.53;4.20;;;31.90;50.00;;;;;;5013338;28;20426;-69
2023/06/07 12:13:21;;;;;;;5.00;4.60;;;32.80;48.50;;;;;;5005933;28;20436;-70
2023/06/07 12:15:49;;;;;;;4.73;4.33;;;32.80;47.30;;;;;;5003635;28;20760;-66
2023/06/07 12:18:18;;;;;;;5.37;4.27;;;31.90;47.20;;;;;;5009513;28;20438;-68
2023/06/07 12:20:45;;;;;;;5.10;4.60;;;31.70;47.60;;;;;;5012599;28;20493;-67
2023/06/07 12:29:08;;;;;;;4.70;4.40;;;31.50;46.90;;;;;;5458008;22;20504;-72
2023/06/07 12:31:39;;;;;;;5.20;4.80;;;30.90;47.20;;;;;;4988446;28;20449;-70
2023/06/07 12:34:06;;;;;;;5.00;4.60;;;30.60;48.20;;;;;;4988959;28;20189;-70
2023/06/07 12:36:34;;;;;;;5.13;4.47;;;30.90;48.40;;;;;;4984821;28;20849;-69
2023/06/07 12:39:04;;;;;;;6.40;5.10;;;30.80;48.10;;;;;;4982458;28;21047;-69
2023/06/07 12:41:30;;;;;;;5.40;4.90;;;30.40;48.10;;;;;;4983251;28;20441;-70
2023/06/07 12:44:02;;;;;;;5.13;4.73;;;30.00;48.30;;;;;;4981127;28;20495;-70
2023/06/07 12:46:28;;;;;;;4.87;4.47;;;29.70;48.50;;;;;;4979426;28;20461;-69
2023/06/07 12:48:53;;;;;;;5.50;5.00;;;29.50;49.00;;;;;;4980740;28;20461;-70
2023/06/07 12:51:19;;;;;;;5.43;4.60;;;29.40;49.70;;;;;;4989107;28;20523;-68